createdAt,value
2018-05-31T00:00:32.340Z,24.25
2018-05-31T00:01:29.929Z,24.19
2018-05-31T00:02:29.286Z,24.25
2018-05-31T00:03:29.138Z,24.25
2018-05-31T00:04:29.205Z,24.25
2018-05-31T00:05:32.822Z,24.25
2018-05-31T00:06:29.187Z,24.25
2018-05-31T00:07:29.147Z,24.25
2018-05-31T00:08:30.185Z,24.19
2018-05-31T00:09:29.269Z,24.25
2018-05-31T00:10:29.222Z,24.19
2018-05-31T00:11:29.306Z,24.19
2018-05-31T00:12:30.231Z,24.19
2018-05-31T00:13:29.245Z,24.19
2018-05-31T00:14:32.924Z,24.19
2018-05-31T00:15:29.232Z,24.19
2018-05-31T00:16:29.267Z,24.19
2018-05-31T00:17:29.274Z,24.19
2018-05-31T00:18:29.258Z,24.12
2018-05-31T00:19:29.267Z,24.12
2018-05-31T00:20:29.229Z,24.12
2018-05-31T00:21:29.202Z,24.12
2018-05-31T00:22:29.231Z,24.06
2018-05-31T00:23:32.428Z,24.06
2018-05-31T00:24:29.195Z,24.06
2018-05-31T00:25:29.388Z,24.06
2018-05-31T00:26:29.207Z,24.06
2018-05-31T00:27:29.341Z,24
2018-05-31T00:28:29.227Z,24
2018-05-31T00:29:29.227Z,24
2018-05-31T00:30:29.280Z,24
2018-05-31T00:31:29.268Z,23.94
2018-05-31T00:32:32.013Z,23.94
2018-05-31T00:33:29.364Z,23.94
2018-05-31T00:34:29.206Z,23.94
2018-05-31T00:35:29.360Z,23.87
2018-05-31T00:36:29.221Z,23.87
2018-05-31T00:37:29.273Z,23.87
2018-05-31T00:38:29.236Z,23.87
2018-05-31T00:39:29.368Z,23.87
2018-05-31T00:40:29.243Z,23.81
2018-05-31T00:41:30.545Z,23.81
2018-05-31T00:42:29.382Z,23.81
2018-05-31T00:43:29.273Z,23.81
2018-05-31T00:44:29.299Z,23.75
2018-05-31T00:45:29.278Z,23.75
2018-05-31T00:46:30.020Z,23.75
2018-05-31T00:47:29.394Z,23.69
2018-05-31T00:48:29.221Z,23.69
2018-05-31T00:49:29.333Z,23.56
2018-05-31T00:50:29.314Z,23.5
2018-05-31T00:51:29.308Z,23.5
2018-05-31T00:52:29.477Z,23.44
2018-05-31T00:53:29.362Z,23.44
2018-05-31T00:54:29.319Z,23.44
2018-05-31T00:55:29.350Z,23.44
2018-05-31T00:56:29.310Z,23.38
2018-05-31T00:57:29.317Z,23.38
2018-05-31T00:58:29.241Z,23.31
2018-05-31T00:59:29.229Z,23.31
2018-05-31T01:00:32.760Z,23.31
2018-05-31T01:01:29.287Z,23.25
2018-05-31T01:02:29.440Z,23.19
2018-05-31T01:03:29.314Z,23.06
2018-05-31T01:04:29.426Z,22.94
2018-05-31T01:05:29.249Z,22.87
2018-05-31T01:06:29.297Z,22.75
2018-05-31T01:07:29.475Z,22.69
2018-05-31T01:08:29.246Z,22.69
2018-05-31T01:09:32.389Z,22.69
2018-05-31T01:10:29.341Z,22.69
2018-05-31T01:11:29.328Z,22.69
2018-05-31T01:12:29.327Z,22.69
2018-05-31T01:13:29.419Z,22.69
2018-05-31T01:14:29.296Z,22.69
2018-05-31T01:15:29.304Z,22.69
2018-05-31T01:16:29.265Z,22.69
2018-05-31T01:17:29.318Z,22.69
2018-05-31T01:18:32.230Z,22.69
2018-05-31T01:19:29.326Z,22.69
2018-05-31T01:20:29.412Z,22.69
2018-05-31T01:21:29.470Z,22.69
2018-05-31T01:22:29.403Z,22.75
2018-05-31T01:23:29.422Z,22.75
2018-05-31T01:24:29.352Z,22.75
2018-05-31T01:25:29.325Z,22.75
2018-05-31T01:26:29.322Z,22.75
2018-05-31T01:27:31.263Z,22.75
2018-05-31T01:28:29.300Z,22.75
2018-05-31T01:29:29.120Z,22.75
2018-05-31T01:30:29.298Z,22.75
2018-05-31T01:31:29.322Z,22.75
2018-05-31T01:32:29.145Z,22.75
2018-05-31T01:33:29.154Z,22.81
2018-05-31T01:34:29.136Z,22.75
2018-05-31T01:35:29.145Z,22.81
2018-05-31T01:36:30.509Z,22.75
2018-05-31T01:37:29.146Z,22.75
2018-05-31T01:38:29.137Z,22.75
2018-05-31T01:39:29.144Z,22.69
2018-05-31T01:40:29.113Z,22.62
2018-05-31T01:41:29.230Z,22.69
2018-05-31T01:42:29.199Z,22.69
2018-05-31T01:43:29.170Z,22.69
2018-05-31T01:44:29.143Z,22.69
2018-05-31T01:45:30.185Z,22.62
2018-05-31T01:46:29.203Z,22.69
2018-05-31T01:47:29.150Z,22.69
2018-05-31T01:48:29.157Z,22.69
2018-05-31T01:49:29.181Z,22.69
2018-05-31T01:50:29.197Z,22.62
2018-05-31T01:51:29.193Z,22.62
2018-05-31T01:52:29.131Z,22.69
2018-05-31T01:53:29.267Z,22.62
2018-05-31T01:54:29.625Z,22.62
2018-05-31T01:55:32.734Z,22.62
2018-05-31T01:56:29.156Z,22.62
2018-05-31T01:57:29.188Z,22.62
2018-05-31T01:58:29.149Z,22.56
2018-05-31T01:59:29.176Z,22.62
2018-05-31T02:00:29.208Z,22.56
2018-05-31T02:01:29.153Z,22.56
2018-05-31T02:02:29.166Z,22.56
2018-05-31T02:03:29.237Z,22.56
2018-05-31T02:04:32.267Z,22.56
2018-05-31T02:05:29.166Z,22.5
2018-05-31T02:06:29.128Z,22.5
2018-05-31T02:07:29.172Z,22.5
2018-05-31T02:08:29.170Z,22.44
2018-05-31T02:09:29.178Z,22.44
2018-05-31T02:10:29.149Z,22.44
2018-05-31T02:11:29.195Z,22.37
2018-05-31T02:12:29.378Z,22.31
2018-05-31T02:13:32.327Z,22.31
2018-05-31T02:14:29.364Z,22.31
2018-05-31T02:15:29.185Z,22.25
2018-05-31T02:16:29.185Z,22.25
2018-05-31T02:17:29.227Z,22.25
2018-05-31T02:18:29.298Z,22.13
2018-05-31T02:19:29.160Z,22.06
2018-05-31T02:20:29.201Z,22.06
2018-05-31T02:21:29.260Z,22.06
2018-05-31T02:22:32.391Z,22
2018-05-31T02:23:29.257Z,22
2018-05-31T02:24:29.198Z,22
2018-05-31T02:25:29.179Z,22
2018-05-31T02:26:29.351Z,21.94
2018-05-31T02:27:29.201Z,21.94
2018-05-31T02:28:29.167Z,21.94
2018-05-31T02:29:29.228Z,21.94
2018-05-31T02:30:29.190Z,21.94
2018-05-31T02:31:32.759Z,21.87
2018-05-31T02:32:29.157Z,21.94
2018-05-31T02:33:29.231Z,21.87
2018-05-31T02:34:29.210Z,21.87
2018-05-31T02:35:29.184Z,21.81
2018-05-31T02:36:29.225Z,21.87
2018-05-31T02:37:29.183Z,21.75
2018-05-31T02:38:29.255Z,21.75
2018-05-31T02:39:29.174Z,21.75
2018-05-31T02:40:31.912Z,21.69
2018-05-31T02:41:29.184Z,21.75
2018-05-31T02:42:29.236Z,21.81
2018-05-31T02:43:29.227Z,21.81
2018-05-31T02:44:29.220Z,21.81
2018-05-31T02:45:29.246Z,21.75
2018-05-31T02:46:29.211Z,21.75
2018-05-31T02:47:29.247Z,21.75
2018-05-31T02:48:29.249Z,21.69
2018-05-31T02:49:31.327Z,21.75
2018-05-31T02:50:29.260Z,21.69
2018-05-31T02:51:29.331Z,21.69
2018-05-31T02:52:29.294Z,21.69
2018-05-31T02:53:29.301Z,21.69
2018-05-31T02:54:29.315Z,21.69
2018-05-31T02:55:29.273Z,21.69
2018-05-31T02:56:29.249Z,21.69
2018-05-31T02:57:29.324Z,21.69
2018-05-31T02:58:30.608Z,21.69
2018-05-31T02:59:29.379Z,21.69
2018-05-31T03:00:29.341Z,21.69
2018-05-31T03:01:29.367Z,21.69
2018-05-31T03:02:29.354Z,21.69
2018-05-31T03:03:29.405Z,21.69
2018-05-31T03:04:29.365Z,21.62
2018-05-31T03:05:29.327Z,21.62
2018-05-31T03:06:29.361Z,21.62
2018-05-31T03:07:30.960Z,21.69
2018-05-31T03:08:29.386Z,21.69
2018-05-31T03:09:29.727Z,21.62
2018-05-31T03:10:29.327Z,21.69
2018-05-31T03:11:29.422Z,21.69
2018-05-31T03:12:29.342Z,21.62
2018-05-31T03:13:29.368Z,21.69
2018-05-31T03:14:29.349Z,21.62
2018-05-31T03:15:29.455Z,21.62
2018-05-31T03:16:30.282Z,21.62
2018-05-31T03:17:29.349Z,21.56
2018-05-31T03:18:29.371Z,21.56
2018-05-31T03:19:29.403Z,21.56
2018-05-31T03:20:29.355Z,21.56
2018-05-31T03:21:29.366Z,21.56
2018-05-31T03:22:29.717Z,21.5
2018-05-31T03:23:29.405Z,21.5
2018-05-31T03:24:29.405Z,21.5
2018-05-31T03:25:30.223Z,21.5
2018-05-31T03:26:29.334Z,21.44
2018-05-31T03:27:29.440Z,21.44
2018-05-31T03:28:29.377Z,21.44
2018-05-31T03:29:29.348Z,21.37
2018-05-31T03:30:29.409Z,21.37
2018-05-31T03:31:29.409Z,21.37
2018-05-31T03:32:29.407Z,21.37
2018-05-31T03:33:29.372Z,21.37
2018-05-31T03:34:30.812Z,21.37
2018-05-31T03:35:29.436Z,21.31
2018-05-31T03:36:29.434Z,21.31
2018-05-31T03:37:29.356Z,21.31
2018-05-31T03:38:29.388Z,21.31
2018-05-31T03:39:29.400Z,21.31
2018-05-31T03:40:29.412Z,21.31
2018-05-31T03:41:29.376Z,21.25
2018-05-31T03:42:29.479Z,21.19
2018-05-31T03:43:31.242Z,21.19
2018-05-31T03:44:29.404Z,21.19
2018-05-31T03:45:29.436Z,21.12
2018-05-31T03:46:29.450Z,21.12
2018-05-31T03:47:29.975Z,21.12
2018-05-31T03:48:29.953Z,21.12
2018-05-31T03:49:29.336Z,21.12
2018-05-31T03:50:29.434Z,21.06
2018-05-31T03:51:29.384Z,21.06
2018-05-31T03:52:30.945Z,21.12
2018-05-31T03:53:29.980Z,21.12
2018-05-31T03:54:29.519Z,21.19
2018-05-31T03:55:29.611Z,21.12
2018-05-31T03:56:29.407Z,21.19
2018-05-31T03:57:29.421Z,21.19
2018-05-31T03:58:29.424Z,21.19
2018-05-31T03:59:29.459Z,21.19
2018-05-31T04:00:29.488Z,21.19
2018-05-31T04:01:31.593Z,21.12
2018-05-31T04:02:29.376Z,21.12
2018-05-31T04:03:29.432Z,21
2018-05-31T04:04:29.370Z,20.94
2018-05-31T04:05:29.427Z,20.88
2018-05-31T04:06:29.507Z,20.88
2018-05-31T04:07:29.386Z,20.88
2018-05-31T04:08:29.415Z,20.88
2018-05-31T04:09:29.367Z,20.75
2018-05-31T04:10:31.004Z,20.75
2018-05-31T04:11:29.529Z,20.75
2018-05-31T04:12:29.492Z,20.75
2018-05-31T04:13:29.489Z,20.81
2018-05-31T04:14:29.497Z,20.81
2018-05-31T04:15:29.257Z,20.81
2018-05-31T04:16:29.516Z,20.81
2018-05-31T04:17:29.509Z,20.69
2018-05-31T04:18:29.555Z,20.69
2018-05-31T04:19:31.100Z,20.69
2018-05-31T04:20:29.609Z,20.69
2018-05-31T04:21:29.686Z,20.69
2018-05-31T04:22:29.252Z,20.69
2018-05-31T04:23:29.268Z,20.69
2018-05-31T04:24:29.226Z,20.75
2018-05-31T04:25:29.565Z,20.75
2018-05-31T04:26:29.482Z,20.81
2018-05-31T04:27:29.311Z,20.75
2018-05-31T04:28:31.237Z,20.75
2018-05-31T04:29:29.329Z,20.81
2018-05-31T04:30:29.547Z,20.75
2018-05-31T04:31:29.257Z,20.81
2018-05-31T04:32:29.292Z,20.81
2018-05-31T04:33:29.285Z,20.81
2018-05-31T04:34:29.638Z,20.81
2018-05-31T04:35:29.299Z,20.81
2018-05-31T04:36:29.347Z,20.81
2018-05-31T04:37:31.142Z,20.81
2018-05-31T04:38:29.261Z,20.81
2018-05-31T04:39:29.256Z,20.81
2018-05-31T04:40:29.296Z,20.81
2018-05-31T04:41:29.276Z,20.75
2018-05-31T04:42:29.717Z,20.81
2018-05-31T04:43:29.299Z,20.81
2018-05-31T04:44:29.297Z,20.81
2018-05-31T04:45:29.233Z,20.81
2018-05-31T04:46:31.877Z,20.81
2018-05-31T04:47:29.314Z,20.88
2018-05-31T04:48:29.265Z,20.88
2018-05-31T04:49:29.311Z,20.88
2018-05-31T04:50:29.317Z,20.88
2018-05-31T04:51:29.241Z,20.81
2018-05-31T04:52:29.337Z,20.81
2018-05-31T04:53:29.662Z,20.88
2018-05-31T04:54:29.323Z,20.81
2018-05-31T04:55:31.850Z,20.81
2018-05-31T04:56:29.320Z,20.81
2018-05-31T04:57:29.299Z,20.88
2018-05-31T04:58:29.264Z,20.88
2018-05-31T04:59:29.305Z,20.81
2018-05-31T05:00:29.494Z,20.81
2018-05-31T05:01:29.320Z,20.81
2018-05-31T05:02:29.424Z,20.81
2018-05-31T05:03:29.317Z,20.88
2018-05-31T05:04:31.747Z,20.88
2018-05-31T05:05:29.305Z,20.88
2018-05-31T05:06:29.342Z,20.94
2018-05-31T05:07:29.267Z,20.88
2018-05-31T05:08:29.271Z,20.88
2018-05-31T05:09:29.282Z,20.88
2018-05-31T05:10:29.277Z,20.81
2018-05-31T05:11:29.269Z,20.75
2018-05-31T05:12:29.298Z,20.75
2018-05-31T05:13:32.138Z,20.81
2018-05-31T05:14:29.295Z,20.81
2018-05-31T05:15:29.298Z,20.81
2018-05-31T05:16:29.273Z,20.75
2018-05-31T05:17:29.345Z,20.75
2018-05-31T05:18:29.277Z,20.75
2018-05-31T05:19:29.315Z,20.75
2018-05-31T05:20:29.342Z,20.81
2018-05-31T05:21:29.347Z,20.75
2018-05-31T05:22:32.009Z,20.69
2018-05-31T05:23:29.370Z,20.69
2018-05-31T05:24:29.328Z,20.69
2018-05-31T05:25:29.383Z,20.69
2018-05-31T05:26:30.235Z,20.75
2018-05-31T05:27:29.317Z,20.75
2018-05-31T05:28:29.388Z,20.75
2018-05-31T05:29:29.301Z,20.75
2018-05-31T05:30:29.271Z,20.81
2018-05-31T05:31:32.312Z,20.81
2018-05-31T05:32:29.727Z,20.81
2018-05-31T05:33:29.334Z,20.88
2018-05-31T05:34:29.416Z,20.88
2018-05-31T05:35:29.296Z,20.88
2018-05-31T05:36:29.476Z,20.88
2018-05-31T05:37:29.316Z,20.88
2018-05-31T05:38:29.421Z,20.88
2018-05-31T05:39:29.372Z,20.88
2018-05-31T05:40:32.744Z,20.94
2018-05-31T05:41:29.401Z,20.94
2018-05-31T05:42:29.414Z,20.94
2018-05-31T05:43:29.651Z,21
2018-05-31T05:44:29.415Z,21
2018-05-31T05:45:29.471Z,21.06
2018-05-31T05:46:29.411Z,21.06
2018-05-31T05:47:29.419Z,21.06
2018-05-31T05:48:29.421Z,21.06
2018-05-31T05:49:32.716Z,21.12
2018-05-31T05:50:29.635Z,21.06
2018-05-31T05:51:29.442Z,21.06
2018-05-31T05:52:29.552Z,21.12
2018-05-31T05:53:29.472Z,21.12
2018-05-31T05:54:29.437Z,21.12
2018-05-31T05:55:29.429Z,21.12
2018-05-31T05:56:30.156Z,21.12
2018-05-31T05:57:29.489Z,21.19
2018-05-31T05:58:32.875Z,21.19
2018-05-31T05:59:29.465Z,21.25
2018-05-31T06:00:29.550Z,21.25
2018-05-31T06:01:29.548Z,21.25
2018-05-31T06:02:29.463Z,21.25
2018-05-31T06:03:29.480Z,21.25
2018-05-31T06:04:29.465Z,21.25
2018-05-31T06:05:29.653Z,21.31
2018-05-31T06:06:29.487Z,21.25
2018-05-31T06:07:29.568Z,21.25
2018-05-31T06:08:29.446Z,21.31
2018-05-31T06:09:29.493Z,21.31
2018-05-31T06:10:29.459Z,21.37
2018-05-31T06:11:29.484Z,21.37
2018-05-31T06:12:29.503Z,21.37
2018-05-31T06:13:30.359Z,21.37
2018-05-31T06:14:29.487Z,21.37
2018-05-31T06:15:31.539Z,21.44
2018-05-31T06:16:29.524Z,21.44
2018-05-31T06:17:29.590Z,21.44
2018-05-31T06:18:29.494Z,21.5
2018-05-31T06:19:29.499Z,21.5
2018-05-31T06:20:29.436Z,21.5
2018-05-31T06:21:29.489Z,21.5
2018-05-31T06:22:29.473Z,21.56
2018-05-31T06:23:29.477Z,21.56
2018-05-31T06:24:31.235Z,21.56
2018-05-31T06:25:29.440Z,21.56
2018-05-31T06:26:31.896Z,21.56
2018-05-31T06:27:29.488Z,21.62
2018-05-31T06:28:29.491Z,21.62
2018-05-31T06:29:29.632Z,21.69
2018-05-31T06:30:29.520Z,21.69
2018-05-31T06:31:29.486Z,21.62
2018-05-31T06:32:29.555Z,21.62
2018-05-31T06:33:32.546Z,21.69
2018-05-31T06:34:29.409Z,21.69
2018-05-31T06:35:29.428Z,21.69
2018-05-31T06:36:29.416Z,21.75
2018-05-31T06:37:30.000Z,21.75
2018-05-31T06:38:29.787Z,21.81
2018-05-31T06:39:29.405Z,21.81
2018-05-31T06:40:29.490Z,21.81
2018-05-31T06:41:29.454Z,21.81
2018-05-31T06:42:29.625Z,21.87
2018-05-31T06:43:29.451Z,21.81
2018-05-31T06:44:29.529Z,21.81
2018-05-31T06:45:29.437Z,21.87
2018-05-31T06:46:29.420Z,21.87
2018-05-31T06:47:29.477Z,21.87
2018-05-31T06:48:29.404Z,21.87
2018-05-31T06:49:29.394Z,21.87
2018-05-31T06:50:29.401Z,21.87
2018-05-31T06:51:29.568Z,21.87
2018-05-31T06:52:29.477Z,21.87
2018-05-31T06:53:29.400Z,21.87
2018-05-31T06:54:29.477Z,21.94
2018-05-31T06:55:29.411Z,22
2018-05-31T06:56:29.416Z,22
2018-05-31T06:57:29.450Z,22
2018-05-31T06:58:29.446Z,22.06
2018-05-31T06:59:29.461Z,22.06
2018-05-31T07:00:29.453Z,22.06
2018-05-31T07:01:29.289Z,22.13
2018-05-31T07:02:29.578Z,22.13
2018-05-31T07:03:29.619Z,22.19
2018-05-31T07:04:29.285Z,22.19
2018-05-31T07:05:29.290Z,22.25
2018-05-31T07:06:29.291Z,22.31
2018-05-31T07:07:29.305Z,22.37
2018-05-31T07:08:29.307Z,22.37
2018-05-31T07:09:29.333Z,22.37
2018-05-31T07:10:29.311Z,22.44
2018-05-31T07:11:29.311Z,22.5
2018-05-31T07:12:29.344Z,22.5
2018-05-31T07:13:29.635Z,22.5
2018-05-31T07:14:29.740Z,22.56
2018-05-31T07:15:29.607Z,22.56
2018-05-31T07:16:29.319Z,22.62
2018-05-31T07:17:29.348Z,22.62
2018-05-31T07:18:29.357Z,22.62
2018-05-31T07:19:29.291Z,22.69
2018-05-31T07:20:29.313Z,22.75
2018-05-31T07:21:29.327Z,22.81
2018-05-31T07:22:29.339Z,22.81
2018-05-31T07:23:29.298Z,22.81
2018-05-31T07:24:29.297Z,22.81
2018-05-31T07:25:29.320Z,22.81
2018-05-31T07:26:29.323Z,22.81
2018-05-31T07:27:29.296Z,22.81
2018-05-31T07:28:29.355Z,22.87
2018-05-31T07:29:29.297Z,22.87
2018-05-31T07:30:29.373Z,22.87
2018-05-31T07:31:29.334Z,22.94
2018-05-31T07:32:29.341Z,22.94
2018-05-31T07:33:29.349Z,23
2018-05-31T07:34:29.333Z,23
2018-05-31T07:35:29.342Z,23.06
2018-05-31T07:36:29.340Z,23.12
2018-05-31T07:37:29.436Z,23.12
2018-05-31T07:38:29.344Z,23.19
2018-05-31T07:39:29.325Z,23.25
2018-05-31T07:40:29.357Z,23.25
2018-05-31T07:41:29.282Z,23.31
2018-05-31T07:42:29.333Z,23.31
2018-05-31T07:43:29.542Z,23.38
2018-05-31T07:44:29.335Z,23.44
2018-05-31T07:45:29.342Z,23.44
2018-05-31T07:46:30.055Z,23.44
2018-05-31T07:47:29.336Z,23.44
2018-05-31T07:48:29.387Z,23.44
2018-05-31T07:49:29.369Z,23.38
2018-05-31T07:50:29.516Z,23.38
2018-05-31T07:51:29.401Z,23.38
2018-05-31T07:52:29.319Z,23.38
2018-05-31T07:53:29.323Z,23.44
2018-05-31T07:54:29.335Z,23.44
2018-05-31T07:55:29.556Z,23.5
2018-05-31T07:56:29.374Z,23.5
2018-05-31T07:57:29.363Z,23.56
2018-05-31T07:58:29.416Z,23.56
2018-05-31T07:59:29.327Z,23.62
2018-05-31T08:00:29.328Z,23.62
2018-05-31T08:01:29.394Z,23.62
2018-05-31T08:02:29.347Z,23.56
2018-05-31T08:03:29.390Z,23.56
2018-05-31T08:04:29.363Z,23.56
2018-05-31T08:05:29.331Z,23.56
2018-05-31T08:06:29.351Z,23.56
2018-05-31T08:07:29.353Z,23.62
2018-05-31T08:08:29.408Z,23.62
2018-05-31T08:09:29.346Z,23.75
2018-05-31T08:10:29.377Z,23.81
2018-05-31T08:11:29.346Z,23.81
2018-05-31T08:12:29.387Z,23.87
2018-05-31T08:13:29.350Z,23.94
2018-05-31T08:14:29.360Z,23.87
2018-05-31T08:15:29.322Z,23.87
2018-05-31T08:16:29.370Z,23.87
2018-05-31T08:17:29.392Z,23.87
2018-05-31T08:18:29.365Z,23.87
2018-05-31T08:19:29.359Z,23.87
2018-05-31T08:20:29.338Z,23.81
2018-05-31T08:21:29.354Z,23.81
2018-05-31T08:22:29.385Z,23.81
2018-05-31T08:23:29.340Z,23.81
2018-05-31T08:24:29.349Z,23.75
2018-05-31T08:25:29.411Z,23.81
2018-05-31T08:26:29.444Z,23.81
2018-05-31T08:27:29.332Z,23.87
2018-05-31T08:28:29.346Z,23.94
2018-05-31T08:29:29.332Z,24
2018-05-31T08:30:29.366Z,24
2018-05-31T08:31:30.227Z,24.12
2018-05-31T08:32:29.387Z,24.19
2018-05-31T08:33:29.419Z,24.19
2018-05-31T08:34:29.466Z,24.19
2018-05-31T08:35:29.392Z,24.25
2018-05-31T08:36:29.419Z,24.12
2018-05-31T08:37:29.441Z,24.12
2018-05-31T08:38:29.577Z,24.19
2018-05-31T08:39:29.480Z,24.19
2018-05-31T08:40:29.518Z,24.19
2018-05-31T08:41:29.618Z,24.25
2018-05-31T08:42:29.491Z,24.31
2018-05-31T08:43:29.453Z,24.37
2018-05-31T08:44:29.489Z,24.44
2018-05-31T08:45:29.493Z,24.44
2018-05-31T08:46:29.468Z,24.37
2018-05-31T08:47:29.472Z,24.37
2018-05-31T08:48:29.473Z,24.25
2018-05-31T08:49:29.498Z,24.25
2018-05-31T08:50:29.520Z,24.25
2018-05-31T08:51:29.492Z,24.19
2018-05-31T08:52:29.501Z,24.25
2018-05-31T08:53:29.520Z,24.19
2018-05-31T08:54:29.548Z,24.19
2018-05-31T08:55:29.583Z,24.19
2018-05-31T08:56:29.481Z,24.19
2018-05-31T08:57:29.500Z,24.25
2018-05-31T08:58:30.832Z,24.31
2018-05-31T08:59:29.532Z,24.37
2018-05-31T09:00:29.516Z,24.44
2018-05-31T09:01:29.631Z,24.5
2018-05-31T09:02:29.574Z,24.56
2018-05-31T09:03:29.535Z,24.63
2018-05-31T09:04:29.545Z,24.63
2018-05-31T09:05:29.486Z,24.63
2018-05-31T09:06:29.614Z,24.69
2018-05-31T09:07:29.493Z,24.69
2018-05-31T09:08:29.540Z,24.75
2018-05-31T09:09:30.113Z,24.75
2018-05-31T09:10:29.508Z,24.75
2018-05-31T09:11:29.657Z,24.81
2018-05-31T09:12:29.626Z,24.81
2018-05-31T09:13:29.570Z,24.81
2018-05-31T09:14:29.614Z,24.75
2018-05-31T09:15:29.618Z,24.75
2018-05-31T09:16:30.833Z,24.63
2018-05-31T09:17:29.591Z,24.63
2018-05-31T09:18:29.639Z,24.63
2018-05-31T09:19:29.508Z,24.63
2018-05-31T09:20:29.590Z,24.69
2018-05-31T09:21:29.585Z,24.69
2018-05-31T09:22:29.531Z,24.69
2018-05-31T09:23:29.613Z,24.81
2018-05-31T09:24:29.787Z,24.81
2018-05-31T09:25:30.101Z,24.81
2018-05-31T09:26:29.529Z,24.87
2018-05-31T09:27:29.599Z,24.94
2018-05-31T09:28:30.190Z,25
2018-05-31T09:29:29.759Z,25.06
2018-05-31T09:30:29.723Z,25.06
2018-05-31T09:31:29.499Z,25.12
2018-05-31T09:32:29.497Z,25.12
2018-05-31T09:33:29.512Z,25.06
2018-05-31T09:34:29.559Z,25.12
2018-05-31T09:35:29.504Z,25.12
2018-05-31T09:36:29.520Z,25.25
2018-05-31T09:37:29.853Z,25.25
2018-05-31T09:38:29.812Z,25.31
2018-05-31T09:39:29.816Z,25.31
2018-05-31T09:40:29.528Z,25.37
2018-05-31T09:41:29.548Z,25.44
2018-05-31T09:42:29.634Z,25.5
2018-05-31T09:43:29.695Z,25.56
2018-05-31T09:44:29.575Z,25.62
2018-05-31T09:45:29.628Z,25.62
2018-05-31T09:46:31.202Z,25.69
2018-05-31T09:47:29.543Z,25.69
2018-05-31T09:48:29.649Z,25.75
2018-05-31T09:49:29.553Z,25.69
2018-05-31T09:50:30.265Z,25.75
2018-05-31T09:51:29.885Z,25.75
2018-05-31T09:52:29.573Z,25.81
2018-05-31T09:53:29.600Z,25.81
2018-05-31T09:54:29.588Z,25.88
2018-05-31T09:55:29.695Z,25.81
2018-05-31T09:56:29.837Z,25.75
2018-05-31T09:57:29.713Z,25.75
2018-05-31T09:58:29.682Z,25.75
2018-05-31T09:59:29.648Z,25.75
2018-05-31T10:00:29.432Z,25.81
2018-05-31T10:01:29.595Z,25.88
2018-05-31T10:02:29.602Z,25.94
2018-05-31T10:03:29.425Z,25.94
2018-05-31T10:04:29.442Z,26
2018-05-31T10:05:29.454Z,25.94
2018-05-31T10:06:29.425Z,26
2018-05-31T10:07:29.402Z,26.06
2018-05-31T10:08:29.794Z,26.12
2018-05-31T10:09:29.449Z,26.12
2018-05-31T10:10:29.457Z,26.12
2018-05-31T10:11:29.456Z,26.12
2018-05-31T10:12:29.456Z,26.12
2018-05-31T10:13:29.479Z,26.19
2018-05-31T10:14:29.423Z,26.25
2018-05-31T10:15:29.464Z,26.31
2018-05-31T10:16:29.466Z,26.31
2018-05-31T10:17:29.404Z,26.25
2018-05-31T10:18:29.395Z,26.25
2018-05-31T10:19:29.552Z,26.25
2018-05-31T10:20:29.468Z,26.25
2018-05-31T10:21:29.556Z,26.25
2018-05-31T10:22:30.076Z,26.31
2018-05-31T10:23:29.915Z,26.31
2018-05-31T10:24:30.309Z,26.37
2018-05-31T10:25:29.428Z,26.37
2018-05-31T10:26:29.460Z,26.37
2018-05-31T10:27:29.481Z,26.37
2018-05-31T10:28:29.991Z,26.44
2018-05-31T10:29:29.840Z,26.5
2018-05-31T10:30:29.745Z,26.44
2018-05-31T10:31:29.767Z,26.44
2018-05-31T10:32:29.988Z,26.5
2018-05-31T10:33:29.864Z,26.56
2018-05-31T10:34:29.779Z,26.56
2018-05-31T10:35:29.870Z,26.62
2018-05-31T10:36:29.896Z,26.56
2018-05-31T10:37:29.801Z,26.56
2018-05-31T10:38:29.929Z,26.56
2018-05-31T10:39:30.625Z,26.56
2018-05-31T10:40:29.656Z,26.56
2018-05-31T10:41:29.604Z,26.56
2018-05-31T10:42:29.892Z,26.56
2018-05-31T10:43:29.664Z,26.62
2018-05-31T10:44:29.933Z,26.69
2018-05-31T10:45:29.632Z,26.69
2018-05-31T10:46:30.263Z,26.69
2018-05-31T10:47:30.250Z,26.75
2018-05-31T10:48:29.960Z,26.75
2018-05-31T10:49:29.698Z,26.75
2018-05-31T10:50:29.876Z,26.69
2018-05-31T10:51:29.674Z,26.56
2018-05-31T10:52:29.996Z,26.56
2018-05-31T10:53:29.996Z,26.62
2018-05-31T10:54:29.737Z,26.69
2018-05-31T10:55:29.892Z,26.69
2018-05-31T10:56:29.612Z,26.81
2018-05-31T10:57:29.683Z,26.81
2018-05-31T10:58:29.591Z,26.87
2018-05-31T10:59:29.571Z,26.94
2018-05-31T11:00:29.599Z,26.87
2018-05-31T11:01:29.620Z,26.94
2018-05-31T11:02:29.760Z,27
2018-05-31T11:03:29.447Z,26.94
2018-05-31T11:04:29.563Z,27
2018-05-31T11:05:29.647Z,27.06
2018-05-31T11:06:29.509Z,27.13
2018-05-31T11:07:29.728Z,27.19
2018-05-31T11:08:29.513Z,27.25
2018-05-31T11:09:29.493Z,27.19
2018-05-31T11:10:29.796Z,27.31
2018-05-31T11:11:29.496Z,27.31
2018-05-31T11:12:29.479Z,27.37
2018-05-31T11:13:30.386Z,27.44
2018-05-31T11:14:29.471Z,27.5
2018-05-31T11:15:29.550Z,27.5
2018-05-31T11:16:29.504Z,27.44
2018-05-31T11:17:29.474Z,27.37
2018-05-31T11:18:29.533Z,27.37
2018-05-31T11:19:29.705Z,27.37
2018-05-31T11:20:29.436Z,27.37
2018-05-31T11:21:29.467Z,27.37
2018-05-31T11:22:29.542Z,27.37
2018-05-31T11:23:29.482Z,27.44
2018-05-31T11:24:29.468Z,27.44
2018-05-31T11:25:29.515Z,27.5
2018-05-31T11:26:30.137Z,27.56
2018-05-31T11:27:29.517Z,27.5
2018-05-31T11:28:30.273Z,27.5
2018-05-31T11:29:29.500Z,27.62
2018-05-31T11:30:29.463Z,27.56
2018-05-31T11:31:29.544Z,27.5
2018-05-31T11:32:29.454Z,27.5
2018-05-31T11:33:29.541Z,27.44
2018-05-31T11:34:29.664Z,27.44
2018-05-31T11:35:29.533Z,27.37
2018-05-31T11:36:31.259Z,27.37
2018-05-31T11:37:29.524Z,27.5
2018-05-31T11:38:29.604Z,27.44
2018-05-31T11:39:29.474Z,27.44
2018-05-31T11:40:29.497Z,27.5
2018-05-31T11:41:29.722Z,27.5
2018-05-31T11:42:29.656Z,27.56
2018-05-31T11:43:29.537Z,27.62
2018-05-31T11:44:29.525Z,27.62
2018-05-31T11:45:29.531Z,27.69
2018-05-31T11:46:29.631Z,27.75
2018-05-31T11:47:29.607Z,27.75
2018-05-31T11:48:29.565Z,27.81
2018-05-31T11:49:29.569Z,27.87
2018-05-31T11:50:29.570Z,27.81
2018-05-31T11:51:29.574Z,27.87
2018-05-31T11:52:29.573Z,27.87
2018-05-31T11:53:29.764Z,27.94
2018-05-31T11:54:29.604Z,27.94
2018-05-31T11:55:29.685Z,27.94
2018-05-31T11:56:30.129Z,27.94
2018-05-31T11:57:29.618Z,28
2018-05-31T11:58:29.679Z,28
2018-05-31T11:59:29.627Z,27.94
2018-05-31T12:00:29.902Z,27.94
2018-05-31T12:01:29.768Z,28
2018-05-31T12:02:29.639Z,27.94
2018-05-31T12:03:29.662Z,28
2018-05-31T12:04:29.668Z,28.06
2018-05-31T12:05:29.633Z,28.06
2018-05-31T12:06:29.934Z,28.19
2018-05-31T12:07:29.684Z,28.19
2018-05-31T12:08:29.709Z,28.12
2018-05-31T12:09:29.699Z,28.25
2018-05-31T12:10:29.774Z,28.31
2018-05-31T12:11:29.824Z,28.31
2018-05-31T12:12:29.637Z,28.31
2018-05-31T12:13:29.715Z,28.38
2018-05-31T12:14:29.748Z,28.38
2018-05-31T12:15:29.702Z,28.38
2018-05-31T12:16:29.654Z,28.44
2018-05-31T12:17:29.725Z,28.44
2018-05-31T12:18:29.701Z,28.44
2018-05-31T12:19:29.663Z,28.44
2018-05-31T12:20:29.650Z,28.44
2018-05-31T12:21:29.659Z,28.44
2018-05-31T12:22:29.692Z,28.5
2018-05-31T12:23:29.633Z,28.5
2018-05-31T12:24:29.707Z,28.5
2018-05-31T12:25:29.952Z,28.56
2018-05-31T12:26:29.664Z,28.56
2018-05-31T12:27:29.665Z,28.56
2018-05-31T12:28:29.907Z,28.56
2018-05-31T12:29:29.676Z,28.5
2018-05-31T12:30:29.709Z,28.44
2018-05-31T12:31:29.657Z,28.44
2018-05-31T12:32:29.674Z,28.44
2018-05-31T12:33:29.851Z,28.44
2018-05-31T12:34:29.663Z,28.38
2018-05-31T12:35:29.749Z,28.31
2018-05-31T12:36:30.513Z,28.31
2018-05-31T12:37:29.698Z,28.31
2018-05-31T12:38:30.544Z,28.25
2018-05-31T12:39:29.654Z,28.25
2018-05-31T12:40:29.694Z,28.25
2018-05-31T12:41:29.675Z,28.19
2018-05-31T12:42:29.645Z,28.12
2018-05-31T12:43:29.671Z,28.12
2018-05-31T12:44:29.904Z,28.12
2018-05-31T12:45:29.782Z,28.12
2018-05-31T12:46:29.657Z,28.12
2018-05-31T12:47:29.882Z,28.12
2018-05-31T12:48:29.737Z,28
2018-05-31T12:49:29.862Z,28
2018-05-31T12:50:29.750Z,27.94
2018-05-31T12:51:29.860Z,27.94
2018-05-31T12:52:29.746Z,27.94
2018-05-31T12:53:29.756Z,27.87
2018-05-31T12:54:29.836Z,27.94
2018-05-31T12:55:29.741Z,27.94
2018-05-31T12:56:29.729Z,27.87